sensor_id;sensor_type;location;lat;lon;timestamp;P1;durP1;ratioP1;P2;durP2;ratioP2
61096;SDS011;46977;50.936;6.908;2022-07-19T00:00:33;8.05;;;3.95;;
61096;SDS011;46977;50.936;6.908;2022-07-19T00:03:36;7.70;;;4.65;;
61096;SDS011;46977;50.936;6.908;2022-07-19T00:06:38;9.68;;;4.95;;
61096;SDS011;46977;50.936;6.908;2022-07-19T00:09:40;10.05;;;4.93;;
61096;SDS011;46977;50.936;6.908;2022-07-19T00:12:43;6.90;;;4.38;;
61096;SDS011;46977;50.936;6.908;2022-07-19T00:15:46;6.03;;;4.50;;
61096;SDS011;46977;50.936;6.908;2022-07-19T00:18:49;8.95;;;4.45;;
61096;SDS011;46977;50.936;6.908;2022-07-19T00:21:51;10.45;;;4.60;;
61096;SDS011;46977;50.936;6.908;2022-07-19T00:24:54;7.13;;;3.85;;
61096;SDS011;46977;50.936;6.908;2022-07-19T00:27:57;7.63;;;4.18;;
61096;SDS011;46977;50.936;6.908;2022-07-19T00:31:00;9.98;;;4.32;;
61096;SDS011;46977;50.936;6.908;2022-07-19T00:34:03;8.20;;;4.30;;
61096;SDS011;46977;50.936;6.908;2022-07-19T00:37:05;6.50;;;4.53;;
61096;SDS011;46977;50.936;6.908;2022-07-19T00:40:08;8.57;;;5.13;;
61096;SDS011;46977;50.936;6.908;2022-07-19T00:43:11;7.03;;;4.55;;
61096;SDS011;46977;50.936;6.908;2022-07-19T00:46:16;7.50;;;4.80;;
61096;SDS011;46977;50.936;6.908;2022-07-19T00:49:20;9.77;;;4.22;;
61096;SDS011;46977;50.936;6.908;2022-07-19T00:52:25;9.45;;;4.57;;
61096;SDS011;46977;50.936;6.908;2022-07-19T00:55:29;8.75;;;3.53;;
61096;SDS011;46977;50.936;6.908;2022-07-19T00:58:33;7.18;;;4.10;;
61096;SDS011;46977;50.936;6.908;2022-07-19T01:01:38;5.68;;;3.75;;
61096;SDS011;46977;50.936;6.908;2022-07-19T01:04:41;6.13;;;4.50;;
61096;SDS011;46977;50.936;6.908;2022-07-19T01:07:43;5.55;;;4.10;;
61096;SDS011;46977;50.936;6.908;2022-07-19T01:10:46;7.22;;;3.78;;
61096;SDS011;46977;50.936;6.908;2022-07-19T01:13:48;7.15;;;4.10;;
61096;SDS011;46977;50.936;6.908;2022-07-19T01:16:53;9.50;;;3.78;;
61096;SDS011;46977;50.936;6.908;2022-07-19T01:19:56;6.97;;;3.13;;
61096;SDS011;46977;50.936;6.908;2022-07-19T01:23:00;5.47;;;3.45;;
61096;SDS011;46977;50.936;6.908;2022-07-19T01:26:02;5.63;;;3.05;;
61096;SDS011;46977;50.936;6.908;2022-07-19T01:29:05;5.32;;;3.33;;
61096;SDS011;46977;50.936;6.908;2022-07-19T01:32:07;5.15;;;3.15;;
61096;SDS011;46977;50.936;6.908;2022-07-19T01:35:09;4.13;;;3.13;;
61096;SDS011;46977;50.936;6.908;2022-07-19T01:38:13;7.55;;;2.75;;
61096;SDS011;46977;50.936;6.908;2022-07-19T01:41:15;4.13;;;2.50;;
61096;SDS011;46977;50.936;6.908;2022-07-19T01:44:18;4.07;;;3.00;;
61096;SDS011;46977;50.936;6.908;2022-07-19T01:47:20;3.83;;;2.60;;
61096;SDS011;46977;50.936;6.908;2022-07-19T01:50:22;4.20;;;2.92;;
61096;SDS011;46977;50.936;6.908;2022-07-19T01:53:26;5.00;;;3.08;;
61096;SDS011;46977;50.936;6.908;2022-07-19T01:56:28;4.75;;;3.13;;
61096;SDS011;46977;50.936;6.908;2022-07-19T01:59:30;4.60;;;2.80;;
61096;SDS011;46977;50.936;6.908;2022-07-19T02:02:33;5.90;;;2.90;;
61096;SDS011;46977;50.936;6.908;2022-07-19T02:05:35;4.10;;;2.83;;
61096;SDS011;46977;50.936;6.908;2022-07-19T02:08:39;3.15;;;2.88;;
61096;SDS011;46977;50.936;6.908;2022-07-19T02:11:42;5.22;;;2.90;;
61096;SDS011;46977;50.936;6.908;2022-07-19T02:14:45;3.47;;;2.58;;
61096;SDS011;46977;50.936;6.908;2022-07-19T02:17:47;5.57;;;2.85;;
61096;SDS011;46977;50.936;6.908;2022-07-19T02:20:49;8.23;;;2.80;;
61096;SDS011;46977;50.936;6.908;2022-07-19T02:23:53;4.10;;;2.88;;
61096;SDS011;46977;50.936;6.908;2022-07-19T02:26:55;3.97;;;3.10;;
61096;SDS011;46977;50.936;6.908;2022-07-19T02:29:57;3.53;;;2.40;;
61096;SDS011;46977;50.936;6.908;2022-07-19T02:33:00;5.03;;;2.72;;
61096;SDS011;46977;50.936;6.908;2022-07-19T02:36:02;6.13;;;3.22;;
61096;SDS011;46977;50.936;6.908;2022-07-19T02:39:07;7.60;;;2.80;;
61096;SDS011;46977;50.936;6.908;2022-07-19T02:42:09;4.57;;;2.60;;
61096;SDS011;46977;50.936;6.908;2022-07-19T02:45:11;7.60;;;2.50;;
61096;SDS011;46977;50.936;6.908;2022-07-19T02:48:16;6.50;;;2.78;;
61096;SDS011;46977;50.936;6.908;2022-07-19T02:51:18;3.17;;;2.50;;
61096;SDS011;46977;50.936;6.908;2022-07-19T02:54:22;5.88;;;2.33;;
61096;SDS011;46977;50.936;6.908;2022-07-19T02:57:24;4.07;;;2.65;;
61096;SDS011;46977;50.936;6.908;2022-07-19T03:00:27;4.13;;;2.25;;
61096;SDS011;46977;50.936;6.908;2022-07-19T03:03:31;4.95;;;2.78;;
61096;SDS011;46977;50.936;6.908;2022-07-19T03:06:45;6.03;;;2.63;;
61096;SDS011;46977;50.936;6.908;2022-07-19T03:09:49;5.53;;;2.60;;
61096;SDS011;46977;50.936;6.908;2022-07-19T03:12:51;3.17;;;2.40;;
61096;SDS011;46977;50.936;6.908;2022-07-19T03:15:53;4.28;;;2.38;;
61096;SDS011;46977;50.936;6.908;2022-07-19T03:18:56;4.78;;;2.50;;
61096;SDS011;46977;50.936;6.908;2022-07-19T03:21:58;4.97;;;2.95;;
61096;SDS011;46977;50.936;6.908;2022-07-19T03:25:02;6.25;;;2.42;;
61096;SDS011;46977;50.936;6.908;2022-07-19T03:28:05;6.18;;;2.50;;
61096;SDS011;46977;50.936;6.908;2022-07-19T03:31:07;4.25;;;2.40;;
61096;SDS011;46977;50.936;6.908;2022-07-19T03:34:10;2.95;;;2.38;;
61096;SDS011;46977;50.936;6.908;2022-07-19T03:37:12;3.47;;;2.15;;
61096;SDS011;46977;50.936;6.908;2022-07-19T03:40:16;4.18;;;2.13;;
61096;SDS011;46977;50.936;6.908;2022-07-19T03:43:19;6.22;;;2.63;;
61096;SDS011;46977;50.936;6.908;2022-07-19T03:46:22;3.78;;;2.00;;
61096;SDS011;46977;50.936;6.908;2022-07-19T03:49:25;3.00;;;2.60;;
61096;SDS011;46977;50.936;6.908;2022-07-19T03:52:27;5.82;;;2.17;;
61096;SDS011;46977;50.936;6.908;2022-07-19T03:55:31;4.03;;;2.40;;
61096;SDS011;46977;50.936;6.908;2022-07-19T03:58:33;2.63;;;2.42;;
61096;SDS011;46977;50.936;6.908;2022-07-19T04:01:35;7.38;;;2.17;;
61096;SDS011;46977;50.936;6.908;2022-07-19T04:04:40;3.92;;;2.40;;
61096;SDS011;46977;50.936;6.908;2022-07-19T04:07:42;6.95;;;2.10;;
61096;SDS011;46977;50.936;6.908;2022-07-19T04:10:46;5.95;;;2.42;;
61096;SDS011;46977;50.936;6.908;2022-07-19T04:13:48;7.10;;;2.58;;
61096;SDS011;46977;50.936;6.908;2022-07-19T04:16:51;3.28;;;2.40;;
61096;SDS011;46977;50.936;6.908;2022-07-19T04:19:53;8.63;;;2.33;;
61096;SDS011;46977;50.936;6.908;2022-07-19T04:22:55;4.85;;;2.15;;
61096;SDS011;46977;50.936;6.908;2022-07-19T04:26:00;6.30;;;2.33;;
61096;SDS011;46977;50.936;6.908;2022-07-19T04:29:03;3.50;;;2.28;;
61096;SDS011;46977;50.936;6.908;2022-07-19T04:32:06;6.15;;;2.20;;
61096;SDS011;46977;50.936;6.908;2022-07-19T04:35:08;4.15;;;2.13;;
61096;SDS011;46977;50.936;6.908;2022-07-19T04:38:11;6.95;;;2.25;;
61096;SDS011;46977;50.936;6.908;2022-07-19T04:41:15;4.80;;;2.70;;
61096;SDS011;46977;50.936;6.908;2022-07-19T04:44:17;5.47;;;2.63;;
61096;SDS011;46977;50.936;6.908;2022-07-19T04:47:19;5.97;;;2.33;;
61096;SDS011;46977;50.936;6.908;2022-07-19T04:50:21;4.75;;;2.58;;
61096;SDS011;46977;50.936;6.908;2022-07-19T04:53:24;4.30;;;2.83;;
61096;SDS011;46977;50.936;6.908;2022-07-19T04:56:27;7.65;;;2.30;;
61096;SDS011;46977;50.936;6.908;2022-07-19T04:59:30;5.30;;;2.03;;
61096;SDS011;46977;50.936;6.908;2022-07-19T05:02:32;3.55;;;2.75;;
61096;SDS011;46977;50.936;6.908;2022-07-19T05:05:34;3.78;;;2.10;;
61096;SDS011;46977;50.936;6.908;2022-07-19T05:08:37;7.47;;;2.38;;
61096;SDS011;46977;50.936;6.908;2022-07-19T05:11:44;3.28;;;2.05;;
61096;SDS011;46977;50.936;6.908;2022-07-19T05:14:52;4.65;;;2.20;;
61096;SDS011;46977;50.936;6.908;2022-07-19T05:17:54;3.80;;;2.03;;
61096;SDS011;46977;50.936;6.908;2022-07-19T05:20:56;5.78;;;2.67;;
61096;SDS011;46977;50.936;6.908;2022-07-19T05:24:02;4.75;;;3.28;;
61096;SDS011;46977;50.936;6.908;2022-07-19T05:27:06;7.88;;;2.33;;
61096;SDS011;46977;50.936;6.908;2022-07-19T05:30:13;9.57;;;2.33;;
61096;SDS011;46977;50.936;6.908;2022-07-19T05:33:15;3.75;;;2.38;;
61096;SDS011;46977;50.936;6.908;2022-07-19T05:36:23;6.05;;;2.20;;
61096;SDS011;46977;50.936;6.908;2022-07-19T05:39:25;4.85;;;2.08;;
61096;SDS011;46977;50.936;6.908;2022-07-19T05:42:32;8.10;;;2.10;;
61096;SDS011;46977;50.936;6.908;2022-07-19T05:45:35;3.67;;;2.40;;
61096;SDS011;46977;50.936;6.908;2022-07-19T05:48:37;4.88;;;2.15;;
61096;SDS011;46977;50.936;6.908;2022-07-19T05:52:11;12.98;;;2.67;;
61096;SDS011;46977;50.936;6.908;2022-07-19T06:00:23;9.85;;;2.80;;
61096;SDS011;46977;50.936;6.908;2022-07-19T06:08:56;8.10;;;2.47;;
61096;SDS011;46977;50.936;6.908;2022-07-19T06:13:18;3.13;;;1.80;;
61096;SDS011;46977;50.936;6.908;2022-07-19T06:20:57;5.80;;;2.50;;
61096;SDS011;46977;50.936;6.908;2022-07-19T06:24:07;6.30;;;2.45;;
61096;SDS011;46977;50.936;6.908;2022-07-19T06:27:24;6.90;;;2.10;;
61096;SDS011;46977;50.936;6.908;2022-07-19T06:31:38;7.70;;;2.35;;
61096;SDS011;46977;50.936;6.908;2022-07-19T06:38:49;6.63;;;2.40;;
61096;SDS011;46977;50.936;6.908;2022-07-19T06:42:40;5.15;;;2.00;;
61096;SDS011;46977;50.936;6.908;2022-07-19T06:47:30;7.30;;;2.15;;
61096;SDS011;46977;50.936;6.908;2022-07-19T06:50:50;9.40;;;2.63;;
61096;SDS011;46977;50.936;6.908;2022-07-19T06:58:24;8.65;;;2.28;;
61096;SDS011;46977;50.936;6.908;2022-07-19T07:01:30;7.40;;;2.60;;
61096;SDS011;46977;50.936;6.908;2022-07-19T07:05:31;9.00;;;2.42;;
61096;SDS011;46977;50.936;6.908;2022-07-19T07:08:47;9.77;;;2.30;;
61096;SDS011;46977;50.936;6.908;2022-07-19T07:12:08;8.23;;;2.13;;
61096;SDS011;46977;50.936;6.908;2022-07-19T07:15:36;7.10;;;1.90;;
61096;SDS011;46977;50.936;6.908;2022-07-19T07:20:04;7.07;;;2.30;;
61096;SDS011;46977;50.936;6.908;2022-07-19T07:33:51;5.00;;;2.47;;
61096;SDS011;46977;50.936;6.908;2022-07-19T07:37:25;6.25;;;1.80;;
61096;SDS011;46977;50.936;6.908;2022-07-19T07:46:34;7.32;;;2.20;;
61096;SDS011;46977;50.936;6.908;2022-07-19T08:12:50;6.78;;;1.88;;
61096;SDS011;46977;50.936;6.908;2022-07-19T08:16:40;5.80;;;1.63;;
61096;SDS011;46977;50.936;6.908;2022-07-19T08:28:31;5.60;;;2.08;;
61096;SDS011;46977;50.936;6.908;2022-07-19T08:33:54;7.53;;;1.90;;
61096;SDS011;46977;50.936;6.908;2022-07-19T08:36:40;7.40;;;1.83;;
61096;SDS011;46977;50.936;6.908;2022-07-19T08:40:04;7.72;;;2.30;;
61096;SDS011;46977;50.936;6.908;2022-07-19T09:23:09;6.90;;;2.38;;
61096;SDS011;46977;50.936;6.908;2022-07-19T09:35:10;7.32;;;2.47;;
61096;SDS011;46977;50.936;6.908;2022-07-19T09:38:13;9.18;;;2.33;;
61096;SDS011;46977;50.936;6.908;2022-07-19T09:41:18;6.90;;;2.42;;
61096;SDS011;46977;50.936;6.908;2022-07-19T09:44:22;4.30;;;1.85;;
61096;SDS011;46977;50.936;6.908;2022-07-19T09:47:29;13.68;;;2.97;;
61096;SDS011;46977;50.936;6.908;2022-07-19T09:50:34;5.22;;;2.15;;
61096;SDS011;46977;50.936;6.908;2022-07-19T09:53:37;9.13;;;2.30;;
61096;SDS011;46977;50.936;6.908;2022-07-19T09:56:40;8.13;;;2.67;;
61096;SDS011;46977;50.936;6.908;2022-07-19T09:59:45;4.30;;;1.30;;
61096;SDS011;46977;50.936;6.908;2022-07-19T10:02:53;6.13;;;1.95;;
61096;SDS011;46977;50.936;6.908;2022-07-19T10:05:58;4.00;;;1.63;;
61096;SDS011;46977;50.936;6.908;2022-07-19T10:09:00;3.40;;;1.65;;
61096;SDS011;46977;50.936;6.908;2022-07-19T10:12:03;5.57;;;1.60;;
61096;SDS011;46977;50.936;6.908;2022-07-19T10:15:06;4.93;;;1.85;;
61096;SDS011;46977;50.936;6.908;2022-07-19T10:18:11;7.22;;;1.80;;
61096;SDS011;46977;50.936;6.908;2022-07-19T10:21:15;3.92;;;1.70;;
61096;SDS011;46977;50.936;6.908;2022-07-19T10:27:45;24.77;;;2.45;;
61096;SDS011;46977;50.936;6.908;2022-07-19T10:30:49;6.03;;;1.65;;
61096;SDS011;46977;50.936;6.908;2022-07-19T10:33:58;7.85;;;1.85;;
61096;SDS011;46977;50.936;6.908;2022-07-19T10:37:02;6.50;;;2.20;;
61096;SDS011;46977;50.936;6.908;2022-07-19T10:40:05;5.75;;;2.30;;
61096;SDS011;46977;50.936;6.908;2022-07-19T10:43:09;4.35;;;1.80;;
61096;SDS011;46977;50.936;6.908;2022-07-19T10:46:12;6.20;;;2.00;;
61096;SDS011;46977;50.936;6.908;2022-07-19T10:52:47;6.72;;;2.00;;
61096;SDS011;46977;50.936;6.908;2022-07-19T10:55:53;6.72;;;2.78;;
61096;SDS011;46977;50.936;6.908;2022-07-19T10:59:18;6.13;;;1.75;;
61096;SDS011;46977;50.936;6.908;2022-07-19T11:02:32;6.10;;;2.60;;
61096;SDS011;46977;50.936;6.908;2022-07-19T11:05:46;5.78;;;2.13;;
61096;SDS011;46977;50.936;6.908;2022-07-19T11:08:53;4.55;;;1.60;;
61096;SDS011;46977;50.936;6.908;2022-07-19T11:11:57;5.47;;;1.80;;
61096;SDS011;46977;50.936;6.908;2022-07-19T11:15:00;4.43;;;1.85;;
61096;SDS011;46977;50.936;6.908;2022-07-19T11:18:18;6.80;;;1.80;;
61096;SDS011;46977;50.936;6.908;2022-07-19T11:21:20;4.72;;;1.90;;
61096;SDS011;46977;50.936;6.908;2022-07-19T11:24:24;4.05;;;1.50;;
61096;SDS011;46977;50.936;6.908;2022-07-19T11:27:28;7.97;;;1.92;;
61096;SDS011;46977;50.936;6.908;2022-07-19T11:30:32;4.85;;;2.00;;
61096;SDS011;46977;50.936;6.908;2022-07-19T11:33:35;9.00;;;2.00;;
61096;SDS011;46977;50.936;6.908;2022-07-19T11:36:38;5.25;;;2.20;;
61096;SDS011;46977;50.936;6.908;2022-07-19T11:39:47;6.15;;;2.30;;
61096;SDS011;46977;50.936;6.908;2022-07-19T11:42:51;3.38;;;1.90;;
61096;SDS011;46977;50.936;6.908;2022-07-19T11:46:15;8.20;;;1.80;;
61096;SDS011;46977;50.936;6.908;2022-07-19T11:49:18;7.90;;;2.47;;
61096;SDS011;46977;50.936;6.908;2022-07-19T11:52:20;4.72;;;1.95;;
61096;SDS011;46977;50.936;6.908;2022-07-19T11:55:25;8.05;;;2.13;;
61096;SDS011;46977;50.936;6.908;2022-07-19T11:58:29;4.68;;;2.00;;
61096;SDS011;46977;50.936;6.908;2022-07-19T12:01:33;4.72;;;2.15;;
61096;SDS011;46977;50.936;6.908;2022-07-19T12:04:37;4.47;;;2.20;;
61096;SDS011;46977;50.936;6.908;2022-07-19T12:07:44;7.93;;;2.30;;
61096;SDS011;46977;50.936;6.908;2022-07-19T12:10:50;6.10;;;2.42;;
61096;SDS011;46977;50.936;6.908;2022-07-19T12:13:55;4.72;;;1.80;;
61096;SDS011;46977;50.936;6.908;2022-07-19T12:17:10;7.22;;;2.40;;
61096;SDS011;46977;50.936;6.908;2022-07-19T12:20:14;4.10;;;2.03;;
61096;SDS011;46977;50.936;6.908;2022-07-19T12:23:36;8.48;;;2.20;;
61096;SDS011;46977;50.936;6.908;2022-07-19T12:26:41;3.22;;;1.67;;
61096;SDS011;46977;50.936;6.908;2022-07-19T12:29:55;5.90;;;2.15;;
61096;SDS011;46977;50.936;6.908;2022-07-19T12:33:05;7.13;;;2.25;;
61096;SDS011;46977;50.936;6.908;2022-07-19T12:39:17;5.90;;;2.40;;
61096;SDS011;46977;50.936;6.908;2022-07-19T12:42:22;5.07;;;2.10;;
61096;SDS011;46977;50.936;6.908;2022-07-19T12:45:25;5.82;;;1.70;;
61096;SDS011;46977;50.936;6.908;2022-07-19T12:48:28;3.78;;;1.92;;
61096;SDS011;46977;50.936;6.908;2022-07-19T12:51:31;7.07;;;2.20;;
61096;SDS011;46977;50.936;6.908;2022-07-19T12:54:33;4.03;;;2.05;;
61096;SDS011;46977;50.936;6.908;2022-07-19T12:57:37;8.88;;;2.10;;
61096;SDS011;46977;50.936;6.908;2022-07-19T13:00:40;5.93;;;1.90;;
61096;SDS011;46977;50.936;6.908;2022-07-19T13:03:46;4.38;;;2.00;;
61096;SDS011;46977;50.936;6.908;2022-07-19T13:06:49;4.15;;;2.03;;
61096;SDS011;46977;50.936;6.908;2022-07-19T13:09:51;5.43;;;1.95;;
61096;SDS011;46977;50.936;6.908;2022-07-19T13:12:55;5.30;;;2.25;;
61096;SDS011;46977;50.936;6.908;2022-07-19T13:15:58;6.35;;;2.38;;
61096;SDS011;46977;50.936;6.908;2022-07-19T13:19:00;5.75;;;2.00;;
61096;SDS011;46977;50.936;6.908;2022-07-19T13:22:03;4.97;;;2.10;;
61096;SDS011;46977;50.936;6.908;2022-07-19T13:25:06;6.03;;;2.20;;
61096;SDS011;46977;50.936;6.908;2022-07-19T13:28:31;3.22;;;1.98;;
61096;SDS011;46977;50.936;6.908;2022-07-19T13:31:33;3.28;;;2.22;;
61096;SDS011;46977;50.936;6.908;2022-07-19T13:34:37;7.22;;;2.45;;
61096;SDS011;46977;50.936;6.908;2022-07-19T13:37:39;2.97;;;2.28;;
61096;SDS011;46977;50.936;6.908;2022-07-19T13:40:42;4.15;;;2.10;;
61096;SDS011;46977;50.936;6.908;2022-07-19T13:43:46;4.47;;;2.00;;
61096;SDS011;46977;50.936;6.908;2022-07-19T13:46:48;2.58;;;2.30;;
61096;SDS011;46977;50.936;6.908;2022-07-19T13:49:51;4.72;;;2.42;;
61096;SDS011;46977;50.936;6.908;2022-07-19T13:52:54;14.88;;;2.92;;
61096;SDS011;46977;50.936;6.908;2022-07-19T13:55:57;4.65;;;2.60;;
61096;SDS011;46977;50.936;6.908;2022-07-19T13:59:00;5.03;;;2.90;;
61096;SDS011;46977;50.936;6.908;2022-07-19T14:02:04;6.82;;;2.72;;
61096;SDS011;46977;50.936;6.908;2022-07-19T14:05:08;4.47;;;2.10;;
61096;SDS011;46977;50.936;6.908;2022-07-19T14:08:10;4.30;;;2.22;;
61096;SDS011;46977;50.936;6.908;2022-07-19T14:11:15;4.88;;;2.25;;
61096;SDS011;46977;50.936;6.908;2022-07-19T14:14:20;6.68;;;2.58;;
61096;SDS011;46977;50.936;6.908;2022-07-19T14:17:22;7.90;;;2.22;;
61096;SDS011;46977;50.936;6.908;2022-07-19T14:20:25;3.60;;;2.05;;
61096;SDS011;46977;50.936;6.908;2022-07-19T14:23:28;3.65;;;2.50;;
61096;SDS011;46977;50.936;6.908;2022-07-19T14:26:30;3.80;;;2.20;;
61096;SDS011;46977;50.936;6.908;2022-07-19T14:29:34;6.78;;;2.70;;
61096;SDS011;46977;50.936;6.908;2022-07-19T14:32:36;7.32;;;2.60;;
61096;SDS011;46977;50.936;6.908;2022-07-19T14:35:39;5.30;;;2.50;;
61096;SDS011;46977;50.936;6.908;2022-07-19T14:38:42;5.35;;;2.50;;
61096;SDS011;46977;50.936;6.908;2022-07-19T14:41:45;6.70;;;2.47;;
61096;SDS011;46977;50.936;6.908;2022-07-19T14:44:49;7.70;;;2.75;;
61096;SDS011;46977;50.936;6.908;2022-07-19T14:47:51;7.55;;;2.80;;
61096;SDS011;46977;50.936;6.908;2022-07-19T14:50:56;4.53;;;2.65;;
61096;SDS011;46977;50.936;6.908;2022-07-19T14:53:59;5.45;;;2.92;;
61096;SDS011;46977;50.936;6.908;2022-07-19T14:57:13;7.40;;;2.85;;
61096;SDS011;46977;50.936;6.908;2022-07-19T15:00:17;4.93;;;2.60;;
61096;SDS011;46977;50.936;6.908;2022-07-19T15:03:20;6.30;;;2.90;;
61096;SDS011;46977;50.936;6.908;2022-07-19T15:06:23;2.95;;;2.72;;
61096;SDS011;46977;50.936;6.908;2022-07-19T15:09:25;4.80;;;2.35;;
61096;SDS011;46977;50.936;6.908;2022-07-19T15:12:27;3.55;;;2.70;;
61096;SDS011;46977;50.936;6.908;2022-07-19T15:15:31;4.47;;;2.60;;
61096;SDS011;46977;50.936;6.908;2022-07-19T15:18:34;8.75;;;2.78;;
61096;SDS011;46977;50.936;6.908;2022-07-19T15:21:36;9.25;;;3.17;;
61096;SDS011;46977;50.936;6.908;2022-07-19T15:24:39;5.40;;;2.53;;
61096;SDS011;46977;50.936;6.908;2022-07-19T15:27:41;5.68;;;2.60;;
61096;SDS011;46977;50.936;6.908;2022-07-19T15:30:45;8.32;;;2.92;;
61096;SDS011;46977;50.936;6.908;2022-07-19T15:33:48;3.45;;;2.92;;
61096;SDS011;46977;50.936;6.908;2022-07-19T15:36:51;4.68;;;2.75;;
61096;SDS011;46977;50.936;6.908;2022-07-19T15:39:53;7.90;;;3.00;;
61096;SDS011;46977;50.936;6.908;2022-07-19T15:42:56;4.28;;;2.67;;
61096;SDS011;46977;50.936;6.908;2022-07-19T15:45:59;6.00;;;2.80;;
61096;SDS011;46977;50.936;6.908;2022-07-19T15:49:02;5.95;;;2.85;;
61096;SDS011;46977;50.936;6.908;2022-07-19T15:52:05;4.32;;;2.70;;
61096;SDS011;46977;50.936;6.908;2022-07-19T15:55:08;4.82;;;2.72;;
61096;SDS011;46977;50.936;6.908;2022-07-19T15:58:11;6.38;;;3.05;;
61096;SDS011;46977;50.936;6.908;2022-07-19T16:01:15;6.28;;;3.15;;
61096;SDS011;46977;50.936;6.908;2022-07-19T16:04:17;5.30;;;2.40;;
61096;SDS011;46977;50.936;6.908;2022-07-19T16:07:20;8.00;;;3.50;;
61096;SDS011;46977;50.936;6.908;2022-07-19T16:10:22;6.38;;;3.08;;
61096;SDS011;46977;50.936;6.908;2022-07-19T16:13:28;10.05;;;3.10;;
61096;SDS011;46977;50.936;6.908;2022-07-19T16:16:31;3.70;;;2.83;;
61096;SDS011;46977;50.936;6.908;2022-07-19T16:19:35;10.13;;;3.00;;
61096;SDS011;46977;50.936;6.908;2022-07-19T16:22:37;5.28;;;3.03;;
61096;SDS011;46977;50.936;6.908;2022-07-19T16:25:40;7.28;;;3.17;;
61096;SDS011;46977;50.936;6.908;2022-07-19T16:28:43;5.45;;;3.40;;
61096;SDS011;46977;50.936;6.908;2022-07-19T16:31:47;3.83;;;2.67;;
61096;SDS011;46977;50.936;6.908;2022-07-19T16:34:50;8.95;;;2.88;;
61096;SDS011;46977;50.936;6.908;2022-07-19T16:37:53;6.13;;;3.13;;
61096;SDS011;46977;50.936;6.908;2022-07-19T16:40:55;4.68;;;2.53;;
61096;SDS011;46977;50.936;6.908;2022-07-19T16:43:57;5.95;;;3.30;;
61096;SDS011;46977;50.936;6.908;2022-07-19T16:47:02;4.63;;;3.28;;
61096;SDS011;46977;50.936;6.908;2022-07-19T16:50:05;6.50;;;3.55;;
61096;SDS011;46977;50.936;6.908;2022-07-19T16:53:08;4.28;;;2.83;;
61096;SDS011;46977;50.936;6.908;2022-07-19T16:56:11;5.53;;;3.22;;
61096;SDS011;46977;50.936;6.908;2022-07-19T16:59:13;9.55;;;3.47;;
61096;SDS011;46977;50.936;6.908;2022-07-19T17:02:46;5.55;;;3.10;;
61096;SDS011;46977;50.936;6.908;2022-07-19T17:05:49;7.30;;;3.88;;
61096;SDS011;46977;50.936;6.908;2022-07-19T17:08:51;4.95;;;3.33;;
61096;SDS011;46977;50.936;6.908;2022-07-19T17:11:54;6.35;;;2.88;;
61096;SDS011;46977;50.936;6.908;2022-07-19T17:14:57;3.15;;;2.95;;
61096;SDS011;46977;50.936;6.908;2022-07-19T17:18:00;6.70;;;2.97;;
61096;SDS011;46977;50.936;6.908;2022-07-19T17:21:03;8.10;;;3.33;;
61096;SDS011;46977;50.936;6.908;2022-07-19T17:24:05;9.07;;;3.58;;
61096;SDS011;46977;50.936;6.908;2022-07-19T17:27:08;8.52;;;3.20;;
61096;SDS011;46977;50.936;6.908;2022-07-19T17:30:11;6.88;;;3.30;;
61096;SDS011;46977;50.936;6.908;2022-07-19T17:33:15;5.85;;;3.20;;
61096;SDS011;46977;50.936;6.908;2022-07-19T17:36:17;7.63;;;2.97;;
61096;SDS011;46977;50.936;6.908;2022-07-19T17:39:19;7.07;;;3.20;;
61096;SDS011;46977;50.936;6.908;2022-07-19T17:42:22;6.07;;;3.10;;
61096;SDS011;46977;50.936;6.908;2022-07-19T17:45:25;8.48;;;3.13;;
61096;SDS011;46977;50.936;6.908;2022-07-19T17:48:29;11.05;;;3.30;;
61096;SDS011;46977;50.936;6.908;2022-07-19T17:51:31;5.60;;;2.90;;
61096;SDS011;46977;50.936;6.908;2022-07-19T17:54:33;8.20;;;3.28;;
61096;SDS011;46977;50.936;6.908;2022-07-19T17:57:36;4.10;;;2.70;;
61096;SDS011;46977;50.936;6.908;2022-07-19T18:00:39;2.90;;;2.63;;
61096;SDS011;46977;50.936;6.908;2022-07-19T18:03:50;5.45;;;2.72;;
61096;SDS011;46977;50.936;6.908;2022-07-19T18:06:53;4.68;;;2.60;;
61096;SDS011;46977;50.936;6.908;2022-07-19T18:09:55;6.38;;;2.83;;
61096;SDS011;46977;50.936;6.908;2022-07-19T18:12:58;7.10;;;2.88;;
61096;SDS011;46977;50.936;6.908;2022-07-19T18:16:00;4.97;;;2.92;;
61096;SDS011;46977;50.936;6.908;2022-07-19T18:19:26;9.57;;;2.60;;
61096;SDS011;46977;50.936;6.908;2022-07-19T18:22:28;4.15;;;2.50;;
61096;SDS011;46977;50.936;6.908;2022-07-19T18:25:31;6.65;;;2.58;;
61096;SDS011;46977;50.936;6.908;2022-07-19T18:28:33;3.58;;;2.50;;
61096;SDS011;46977;50.936;6.908;2022-07-19T18:31:36;4.50;;;2.58;;
61096;SDS011;46977;50.936;6.908;2022-07-19T18:34:40;6.28;;;2.65;;
61096;SDS011;46977;50.936;6.908;2022-07-19T18:37:42;9.30;;;3.10;;
61096;SDS011;46977;50.936;6.908;2022-07-19T18:40:45;7.57;;;2.78;;
61096;SDS011;46977;50.936;6.908;2022-07-19T18:43:48;11.77;;;2.78;;
61096;SDS011;46977;50.936;6.908;2022-07-19T18:46:51;5.97;;;2.40;;
61096;SDS011;46977;50.936;6.908;2022-07-19T18:49:54;9.32;;;2.90;;
61096;SDS011;46977;50.936;6.908;2022-07-19T18:52:57;6.43;;;2.72;;
61096;SDS011;46977;50.936;6.908;2022-07-19T18:56:00;4.43;;;2.63;;
61096;SDS011;46977;50.936;6.908;2022-07-19T18:59:02;5.88;;;3.00;;
61096;SDS011;46977;50.936;6.908;2022-07-19T19:02:04;7.93;;;2.80;;
61096;SDS011;46977;50.936;6.908;2022-07-19T19:05:09;4.70;;;2.58;;
61096;SDS011;46977;50.936;6.908;2022-07-19T19:08:12;5.38;;;2.78;;
61096;SDS011;46977;50.936;6.908;2022-07-19T19:11:14;5.82;;;3.10;;
61096;SDS011;46977;50.936;6.908;2022-07-19T19:14:17;6.20;;;2.97;;
61096;SDS011;46977;50.936;6.908;2022-07-19T19:17:19;6.35;;;2.80;;
61096;SDS011;46977;50.936;6.908;2022-07-19T19:20:24;11.18;;;3.20;;
61096;SDS011;46977;50.936;6.908;2022-07-19T19:23:26;7.38;;;3.40;;
61096;SDS011;46977;50.936;6.908;2022-07-19T19:26:28;10.63;;;3.55;;
61096;SDS011;46977;50.936;6.908;2022-07-19T19:29:31;9.18;;;3.80;;
61096;SDS011;46977;50.936;6.908;2022-07-19T19:32:33;9.10;;;3.58;;
61096;SDS011;46977;50.936;6.908;2022-07-19T19:35:37;4.57;;;3.13;;
61096;SDS011;46977;50.936;6.908;2022-07-19T19:38:39;7.90;;;3.63;;
61096;SDS011;46977;50.936;6.908;2022-07-19T19:41:50;5.28;;;2.75;;
61096;SDS011;46977;50.936;6.908;2022-07-19T19:44:53;9.35;;;3.17;;
61096;SDS011;46977;50.936;6.908;2022-07-19T19:47:55;7.82;;;3.60;;
61096;SDS011;46977;50.936;6.908;2022-07-19T19:50:59;6.40;;;3.25;;
61096;SDS011;46977;50.936;6.908;2022-07-19T19:54:02;7.05;;;3.50;;
61096;SDS011;46977;50.936;6.908;2022-07-19T19:57:05;7.53;;;3.67;;
61096;SDS011;46977;50.936;6.908;2022-07-19T20:00:08;5.90;;;3.58;;
61096;SDS011;46977;50.936;6.908;2022-07-19T20:06:26;8.20;;;3.85;;
61096;SDS011;46977;50.936;6.908;2022-07-19T20:09:28;9.68;;;3.65;;
61096;SDS011;46977;50.936;6.908;2022-07-19T20:12:31;8.20;;;4.05;;
61096;SDS011;46977;50.936;6.908;2022-07-19T20:15:33;6.10;;;3.75;;
61096;SDS011;46977;50.936;6.908;2022-07-19T20:18:36;9.38;;;4.13;;
61096;SDS011;46977;50.936;6.908;2022-07-19T20:21:40;8.45;;;3.58;;
61096;SDS011;46977;50.936;6.908;2022-07-19T20:24:42;6.00;;;3.97;;
61096;SDS011;46977;50.936;6.908;2022-07-19T20:27:44;6.90;;;4.22;;
61096;SDS011;46977;50.936;6.908;2022-07-19T20:30:49;8.30;;;4.65;;
61096;SDS011;46977;50.936;6.908;2022-07-19T20:33:52;6.55;;;4.03;;
61096;SDS011;46977;50.936;6.908;2022-07-19T20:36:55;6.13;;;3.72;;
61096;SDS011;46977;50.936;6.908;2022-07-19T20:39:59;6.65;;;3.95;;
61096;SDS011;46977;50.936;6.908;2022-07-19T20:43:01;10.63;;;4.63;;
61096;SDS011;46977;50.936;6.908;2022-07-19T20:46:04;8.75;;;4.75;;
61096;SDS011;46977;50.936;6.908;2022-07-19T20:49:07;5.43;;;4.57;;
61096;SDS011;46977;50.936;6.908;2022-07-19T20:52:11;7.30;;;4.05;;
61096;SDS011;46977;50.936;6.908;2022-07-19T20:55:13;8.48;;;4.50;;